Time;durP1;ratioP1;P1;durP2;ratioP2;P2;SDS_P1;SDS_P2;PMS_P1;PMS_P2;Temp;Humidity;BMP_temperature;BMP_pressure;BME280_temperature;BME280_humidity;BME280_pressure;Samples;Min_cycle;Max_cycle;Signal;HPM_P1;HPM_P2
2023/12/09 00:00:48;;;;;;;7.30;2.10;;;9.60;99.90;;;;;;4956842;28;20044;-21
2023/12/09 00:03:14;;;;;;;9.00;2.70;;;9.60;99.90;;;;;;4995736;28;20618;-21
2023/12/09 00:05:40;;;;;;;7.53;2.30;;;9.60;99.90;;;;;;4984608;28;20044;-21
2023/12/09 00:08:05;;;;;;;5.43;2.03;;;9.60;99.90;;;;;;4990547;28;20030;-20
2023/12/09 00:10:31;;;;;;;6.87;2.30;;;9.60;99.90;;;;;;5011878;28;20159;-21
2023/12/09 00:12:57;;;;;;;6.80;2.08;;;9.60;99.90;;;;;;4986779;28;20041;-21
2023/12/09 00:15:23;;;;;;;6.20;2.13;;;9.50;99.90;;;;;;5010330;28;20150;-20
2023/12/09 00:17:49;;;;;;;5.30;2.10;;;9.60;99.90;;;;;;5003095;28;20065;-20
2023/12/09 00:20:14;;;;;;;5.57;1.83;;;9.60;99.90;;;;;;4987231;28;20107;-20
2023/12/09 00:22:41;;;;;;;8.47;1.83;;;9.60;99.90;;;;;;5008732;28;20037;-20
2023/12/09 00:25:07;;;;;;;9.82;2.40;;;9.60;99.90;;;;;;5000553;28;20030;-20
2023/12/09 00:27:34;;;;;;;8.60;2.50;;;9.60;99.90;;;;;;5001590;28;20036;-20
2023/12/09 00:30:00;;;;;;;6.78;2.15;;;9.50;99.90;;;;;;5008880;28;20029;-21
2023/12/09 00:32:26;;;;;;;8.33;2.53;;;9.60;99.90;;;;;;4975117;28;20030;-20
2023/12/09 00:34:51;;;;;;;7.90;2.53;;;9.50;99.90;;;;;;5003543;28;20053;-21
2023/12/09 00:37:17;;;;;;;6.13;2.30;;;10.60;99.90;;;;;;4984681;28;20577;-20
2023/12/09 00:39:43;;;;;;;7.30;2.53;;;9.50;99.90;;;;;;5003652;28;20061;-21
2023/12/09 00:42:10;;;;;;;5.47;2.00;;;9.50;99.90;;;;;;5006209;28;20061;-20
2023/12/09 00:44:36;;;;;;;6.75;2.03;;;9.50;99.90;;;;;;4989661;28;20429;-20
2023/12/09 00:47:02;;;;;;;5.13;2.00;;;9.50;99.90;;;;;;4979063;28;20033;-21
2023/12/09 00:49:27;;;;;;;8.27;2.28;;;9.50;99.90;;;;;;5003791;28;20029;-20
2023/12/09 00:51:53;;;;;;;6.97;2.30;;;9.40;99.90;;;;;;4969048;28;20021;-21
2023/12/09 00:54:19;;;;;;;5.68;1.77;;;9.40;99.90;;;;;;5000306;28;20159;-20
2023/12/09 00:56:44;;;;;;;5.27;2.20;;;9.40;99.90;;;;;;5012273;28;20266;-20
2023/12/09 00:59:10;;;;;;;7.45;1.95;;;9.40;99.90;;;;;;4987549;28;20151;-20
2023/12/09 01:01:36;;;;;;;8.00;2.37;;;9.30;99.90;;;;;;5012245;28;20319;-20
2023/12/09 01:04:02;;;;;;;7.30;2.33;;;9.30;99.90;;;;;;4984674;28;20026;-21
2023/12/09 01:06:29;;;;;;;5.97;2.03;;;9.30;99.90;;;;;;4990614;28;20021;-21
2023/12/09 01:08:55;;;;;;;6.30;1.83;;;9.30;99.90;;;;;;5004899;28;20549;-21
2023/12/09 01:11:21;;;;;;;6.57;2.00;;;9.30;99.90;;;;;;5005343;28;20040;-20
2023/12/09 01:13:47;;;;;;;5.85;2.00;;;9.20;99.90;;;;;;4990306;28;20034;-21
2023/12/09 01:16:12;;;;;;;6.97;2.40;;;9.20;99.90;;;;;;4964896;28;20041;-23
2023/12/09 01:18:38;;;;;;;6.30;2.20;;;9.30;99.90;;;;;;5009561;28;20022;-23
2023/12/09 01:21:04;;;;;;;6.63;2.20;;;9.20;99.90;;;;;;4998102;28;20083;-23
2023/12/09 01:23:33;;;;;;;9.35;2.25;;;9.20;99.90;;;;;;4990061;28;20156;-23
2023/12/09 01:25:59;;;;;;;4.75;1.90;;;9.20;99.90;;;;;;5001841;28;20029;-23
2023/12/09 01:28:24;;;;;;;5.07;1.83;;;9.20;99.90;;;;;;4981181;28;20025;-23
2023/12/09 01:30:50;;;;;;;7.07;1.70;;;9.20;99.90;;;;;;5002139;28;20449;-23
2023/12/09 01:33:16;;;;;;;9.38;2.03;;;9.10;99.90;;;;;;5007574;28;20061;-23
2023/12/09 01:35:42;;;;;;;5.80;1.87;;;9.10;99.90;;;;;;4972897;28;20033;-23
2023/12/09 01:38:07;;;;;;;6.60;1.98;;;9.10;99.90;;;;;;4983019;28;20026;-23
2023/12/09 01:40:33;;;;;;;4.47;1.80;;;9.10;99.90;;;;;;4998587;28;20041;-23
2023/12/09 01:42:59;;;;;;;5.57;1.65;;;9.00;99.90;;;;;;4987359;28;20059;-23
2023/12/09 01:45:25;;;;;;;6.37;2.03;;;9.00;99.90;;;;;;5004482;28;20057;-23
2023/12/09 01:47:51;;;;;;;5.88;1.70;;;9.00;99.90;;;;;;4998389;28;20057;-23
2023/12/09 01:50:17;;;;;;;6.20;1.75;;;9.00;99.90;;;;;;4997049;28;20259;-23
2023/12/09 01:52:43;;;;;;;9.00;2.60;;;8.90;99.90;;;;;;5000901;28;20064;-23
2023/12/09 01:55:13;;;;;;;6.57;2.10;;;8.90;99.90;;;;;;4955806;28;20057;-23
2023/12/09 01:57:39;;;;;;;5.10;2.13;;;8.90;99.90;;;;;;4970521;28;20029;-23
2023/12/09 02:00:06;;;;;;;7.57;2.20;;;8.90;99.90;;;;;;4996892;28;20380;-23
2023/12/09 02:02:32;;;;;;;6.32;2.03;;;8.90;99.90;;;;;;4992028;28;20058;-23
2023/12/09 02:05:01;;;;;;;5.90;2.27;;;8.90;99.90;;;;;;5012198;28;20414;-23
2023/12/09 02:07:27;;;;;;;5.88;2.40;;;8.80;99.90;;;;;;4973976;28;20048;-23
2023/12/09 02:09:53;;;;;;;5.60;2.08;;;10.40;99.90;;;;;;4986384;28;20375;-23
2023/12/09 02:12:48;;;;;;;4.67;2.00;;;8.80;99.90;;;;;;5002321;28;20211;-23
2023/12/09 02:15:52;;;;;;;8.43;1.60;;;8.80;99.90;;;;;;4980398;28;20451;-23
2023/12/09 02:18:19;;;;;;;4.53;2.00;;;8.80;99.90;;;;;;4989709;28;20264;-23
2023/12/09 02:20:44;;;;;;;9.32;2.00;;;8.80;99.90;;;;;;4993882;28;20029;-23
2023/12/09 02:23:11;;;;;;;5.27;1.70;;;8.80;99.90;;;;;;4998613;28;20188;-23
2023/12/09 02:25:38;;;;;;;5.95;1.88;;;8.80;99.90;;;;;;4988661;28;20057;-23
2023/12/09 02:28:28;;;;;;;4.97;1.73;;;8.80;99.90;;;;;;4998993;28;20108;-21
2023/12/09 02:31:02;;;;;;;7.32;1.90;;;8.80;99.90;;;;;;4999151;28;20092;-21
2023/12/09 02:33:29;;;;;;;8.10;1.83;;;8.70;99.90;;;;;;5007891;28;20386;-20
2023/12/09 02:35:56;;;;;;;5.13;1.83;;;8.70;99.90;;;;;;5007671;28;20117;-20
2023/12/09 02:38:23;;;;;;;5.68;1.60;;;8.10;99.90;;;;;;4984788;28;20805;-20
2023/12/09 02:40:50;;;;;;;6.78;2.22;;;8.70;99.90;;;;;;4969647;28;20026;-20
2023/12/09 02:43:16;;;;;;;7.15;2.38;;;8.20;99.90;;;;;;4970996;28;20041;-20
2023/12/09 02:45:45;;;;;;;9.23;2.10;;;8.70;99.90;;;;;;4956110;28;20507;-20
2023/12/09 02:48:11;;;;;;;7.30;2.20;;;8.70;99.90;;;;;;4989468;28;20243;-20
2023/12/09 02:50:37;;;;;;;4.93;1.60;;;8.60;99.90;;;;;;5012290;28;20030;-20
2023/12/09 02:53:03;;;;;;;9.90;2.30;;;8.70;99.90;;;;;;4971004;28;20519;-21
2023/12/09 02:55:29;;;;;;;5.38;2.00;;;8.60;99.90;;;;;;4986101;28;20388;-20
2023/12/09 02:57:55;;;;;;;7.00;1.92;;;8.60;99.90;;;;;;5005480;28;20030;-21
2023/12/09 03:00:20;;;;;;;5.43;2.07;;;8.60;99.90;;;;;;5001844;28;20038;-20
2023/12/09 03:02:46;;;;;;;7.18;2.17;;;8.70;99.90;;;;;;4999417;28;20101;-21
2023/12/09 03:05:12;;;;;;;7.13;2.10;;;8.60;99.90;;;;;;4991819;28;20148;-21
2023/12/09 03:07:37;;;;;;;6.25;1.65;;;8.60;99.90;;;;;;5010643;28;20026;-23
2023/12/09 03:10:03;;;;;;;4.90;1.60;;;8.70;99.90;;;;;;4988371;28;20072;-23
2023/12/09 03:12:29;;;;;;;3.33;1.40;;;8.60;99.90;;;;;;4973782;28;20038;-23
2023/12/09 03:14:55;;;;;;;4.30;1.88;;;8.60;99.90;;;;;;5000769;28;20387;-23
2023/12/09 03:17:21;;;;;;;4.53;1.57;;;8.60;99.90;;;;;;4988849;28;20034;-23
2023/12/09 03:19:47;;;;;;;6.50;1.88;;;8.60;99.90;;;;;;4997390;28;20038;-23
2023/12/09 03:22:15;;;;;;;8.57;2.53;;;8.60;99.90;;;;;;5005479;28;20099;-23
2023/12/09 03:24:44;;;;;;;5.37;1.57;;;8.60;99.90;;;;;;4980115;28;20259;-23
2023/12/09 03:27:10;;;;;;;5.72;2.00;;;8.60;99.90;;;;;;4983765;28;20086;-23
2023/12/09 03:29:36;;;;;;;5.32;1.92;;;8.50;99.90;;;;;;4972842;28;20521;-23
2023/12/09 03:32:02;;;;;;;3.80;1.45;;;8.60;99.90;;;;;;4978459;28;20605;-23
2023/12/09 03:34:27;;;;;;;5.70;1.97;;;8.60;99.90;;;;;;4981101;28;20038;-23
2023/12/09 03:36:53;;;;;;;9.63;2.40;;;8.50;99.90;;;;;;5006666;28;20040;-23
2023/12/09 03:39:19;;;;;;;5.73;2.00;;;8.60;99.90;;;;;;4988193;28;20548;-23
2023/12/09 03:41:45;;;;;;;7.30;2.38;;;8.50;99.90;;;;;;4972191;28;20025;-23
2023/12/09 03:44:11;;;;;;;8.47;2.00;;;8.50;99.90;;;;;;4984121;28;20235;-23
2023/12/09 03:46:37;;;;;;;6.43;2.17;;;8.50;99.90;;;;;;4984877;28;20033;-23
2023/12/09 03:49:02;;;;;;;7.70;2.25;;;8.60;99.90;;;;;;4964464;28;20092;-23
2023/12/09 03:51:28;;;;;;;7.10;1.90;;;;;;;;;;5011775;28;20134;-23
2023/12/09 03:53:54;;;;;;;7.18;2.70;;;8.50;99.90;;;;;;4988272;28;20396;-23
2023/12/09 03:56:22;;;;;;;7.03;2.13;;;8.50;99.90;;;;;;4998987;28;20781;-23
2023/12/09 03:58:48;;;;;;;5.43;1.90;;;8.50;99.90;;;;;;4980781;28;20033;-23
2023/12/09 04:01:14;;;;;;;8.52;2.28;;;8.60;99.90;;;;;;4970698;28;20704;-23
2023/12/09 04:03:40;;;;;;;7.97;2.90;;;8.50;99.90;;;;;;5007552;28;20037;-23
2023/12/09 04:06:06;;;;;;;7.32;2.58;;;8.50;99.90;;;;;;4998302;28;20294;-23
2023/12/09 04:08:32;;;;;;;8.32;2.60;;;8.60;99.90;;;;;;4998340;28;20530;-23
2023/12/09 04:10:58;;;;;;;4.20;1.93;;;8.60;99.90;;;;;;4999001;28;20172;-23
2023/12/09 04:13:24;;;;;;;6.20;2.20;;;8.60;99.90;;;;;;4973903;28;20248;-23
2023/12/09 04:15:49;;;;;;;6.40;2.50;;;8.60;99.90;;;;;;4954262;28;20133;-23
2023/12/09 04:18:15;;;;;;;8.80;2.30;;;8.60;99.90;;;;;;5000052;28;20494;-23
2023/12/09 04:20:41;;;;;;;8.05;2.83;;;8.70;99.90;;;;;;5002122;28;20064;-23
2023/12/09 04:23:07;;;;;;;7.87;2.83;;;8.70;99.90;;;;;;5000668;28;20286;-23
2023/12/09 04:25:32;;;;;;;12.45;3.90;;;8.80;99.90;;;;;;4979985;28;20046;-23
2023/12/09 04:27:58;;;;;;;7.00;3.20;;;8.80;99.90;;;;;;5006206;28;20813;-23
2023/12/09 04:30:24;;;;;;;8.02;2.20;;;8.80;99.90;;;;;;4980479;28;20048;-23
2023/12/09 04:32:50;;;;;;;9.70;2.70;;;8.80;99.90;;;;;;4973176;28;20045;-23
2023/12/09 04:35:16;;;;;;;6.85;2.50;;;8.90;99.90;;;;;;4993547;28;20295;-23
2023/12/09 04:37:41;;;;;;;6.75;2.70;;;8.90;99.90;;;;;;4978136;28;20597;-23
2023/12/09 04:40:11;;;;;;;10.47;2.97;;;8.90;99.90;;;;;;5007878;28;20444;-23
2023/12/09 04:42:37;;;;;;;7.53;2.70;;;8.90;99.90;;;;;;5001880;28;20672;-23
2023/12/09 04:45:05;;;;;;;9.70;2.78;;;8.90;99.90;;;;;;4956010;28;20532;-23
2023/12/09 04:47:34;;;;;;;7.70;2.30;;;9.00;99.90;;;;;;4980598;28;20739;-23
2023/12/09 04:50:00;;;;;;;6.73;2.30;;;9.80;99.90;;;;;;4980406;28;20052;-23
2023/12/09 04:52:26;;;;;;;8.25;2.50;;;9.00;99.90;;;;;;5000287;28;20164;-23
2023/12/09 04:54:52;;;;;;;10.03;2.53;;;9.00;99.90;;;;;;5013995;28;20048;-23
2023/12/09 04:57:17;;;;;;;6.18;2.45;;;9.00;99.90;;;;;;4999894;28;20041;-23
2023/12/09 04:59:43;;;;;;;8.18;2.63;;;9.00;99.90;;;;;;5009393;28;20139;-23
2023/12/09 05:02:09;;;;;;;8.20;2.63;;;9.00;99.90;;;;;;4983783;28;20048;-23
2023/12/09 05:04:35;;;;;;;8.07;2.63;;;9.00;99.90;;;;;;4997059;28;20051;-23
2023/12/09 05:07:01;;;;;;;7.63;2.40;;;9.00;99.90;;;;;;4985482;28;20065;-23
2023/12/09 05:09:27;;;;;;;5.87;2.30;;;9.00;99.90;;;;;;4987412;28;20036;-23
2023/12/09 05:11:52;;;;;;;6.80;2.30;;;9.00;99.90;;;;;;5001845;28;20365;-23
2023/12/09 05:14:18;;;;;;;8.10;2.25;;;8.10;99.90;;;;;;4993523;28;20491;-23
2023/12/09 05:16:44;;;;;;;7.70;2.00;;;9.10;99.90;;;;;;4989284;28;20036;-23
2023/12/09 05:19:10;;;;;;;5.82;1.90;;;9.10;99.90;;;;;;4998539;28;20022;-23
2023/12/09 05:21:37;;;;;;;9.25;2.20;;;9.20;99.90;;;;;;4990850;28;21768;-23
2023/12/09 05:24:04;;;;;;;6.70;1.90;;;9.10;99.90;;;;;;5011300;28;20069;-23
2023/12/09 05:26:30;;;;;;;6.10;2.20;;;9.10;99.90;;;;;;4999101;28;20030;-23
2023/12/09 05:28:56;;;;;;;6.78;1.83;;;9.20;99.90;;;;;;5007420;28;20572;-23
2023/12/09 05:31:24;;;;;;;4.37;1.60;;;9.20;99.90;;;;;;4988424;28;21092;-23
2023/12/09 05:33:50;;;;;;;6.68;1.77;;;9.20;99.90;;;;;;5005177;28;20120;-23
2023/12/09 05:36:15;;;;;;;5.97;1.80;;;9.20;99.90;;;;;;4969120;28;20025;-23
2023/12/09 05:38:42;;;;;;;9.23;2.50;;;9.30;99.90;;;;;;5001403;28;20590;-23
2023/12/09 05:41:09;;;;;;;7.60;2.03;;;9.30;99.90;;;;;;5007849;28;20026;-23
2023/12/09 05:43:36;;;;;;;5.85;1.80;;;9.30;99.90;;;;;;4998554;28;20642;-23
2023/12/09 05:46:02;;;;;;;9.05;2.67;;;9.30;99.90;;;;;;5010564;28;20383;-23
2023/12/09 05:48:28;;;;;;;7.30;2.05;;;9.40;99.90;;;;;;4947243;28;20263;-23
2023/12/09 05:50:53;;;;;;;6.73;1.90;;;9.40;99.90;;;;;;4991725;28;20362;-23
2023/12/09 05:53:19;;;;;;;7.45;2.10;;;9.50;99.90;;;;;;4965725;28;20085;-23
2023/12/09 05:55:45;;;;;;;5.33;1.83;;;9.50;99.90;;;;;;5008825;28;20034;-23
2023/12/09 05:58:10;;;;;;;5.53;1.77;;;9.50;99.90;;;;;;5001040;28;20048;-23
2023/12/09 06:00:36;;;;;;;4.73;1.57;;;9.60;99.90;;;;;;4980008;28;20076;-23
2023/12/09 06:03:02;;;;;;;6.00;1.60;;;9.60;99.90;;;;;;4981393;28;20220;-23
2023/12/09 06:05:28;;;;;;;5.47;1.55;;;9.60;99.90;;;;;;4992747;28;20056;-23
2023/12/09 06:07:53;;;;;;;5.03;1.73;;;9.60;99.90;;;;;;5006871;28;20104;-23
2023/12/09 06:10:19;;;;;;;5.40;1.65;;;9.60;99.90;;;;;;5000333;28;20789;-23
2023/12/09 06:12:45;;;;;;;4.70;1.50;;;9.60;99.90;;;;;;5002252;28;20040;-23
2023/12/09 06:15:11;;;;;;;4.75;1.45;;;9.60;99.90;;;;;;5010624;28;20033;-23
2023/12/09 06:17:37;;;;;;;4.50;1.63;;;9.60;99.90;;;;;;4987062;28;20372;-23
2023/12/09 06:20:06;;;;;;;5.07;1.75;;;9.60;99.90;;;;;;5002191;28;20148;-23
2023/12/09 06:22:32;;;;;;;4.20;1.70;;;9.70;99.90;;;;;;4970776;28;20029;-23
2023/12/09 06:24:58;;;;;;;4.33;1.70;;;9.70;99.90;;;;;;4987374;28;20398;-23
2023/12/09 06:27:25;;;;;;;8.63;1.50;;;9.70;99.90;;;;;;4996174;28;20110;-23
2023/12/09 06:29:51;;;;;;;4.55;1.40;;;9.70;99.90;;;;;;4978840;28;20036;-23
2023/12/09 06:32:17;;;;;;;3.47;1.37;;;9.70;99.90;;;;;;4994813;28;20037;-24
2023/12/09 06:34:42;;;;;;;6.38;2.00;;;9.70;99.90;;;;;;4968416;28;20446;-23
2023/12/09 06:37:08;;;;;;;6.60;1.63;;;9.70;99.90;;;;;;5001371;28;20685;-23
2023/12/09 06:39:34;;;;;;;6.20;1.45;;;9.70;99.90;;;;;;4994276;28;20079;-23
2023/12/09 06:42:00;;;;;;;4.23;1.40;;;9.70;99.90;;;;;;4970482;28;20241;-23
2023/12/09 06:44:26;;;;;;;5.63;1.50;;;9.80;99.90;;;;;;5000184;28;20262;-23
2023/12/09 06:46:52;;;;;;;5.03;1.50;;;9.70;99.90;;;;;;4995066;28;20326;-23
2023/12/09 06:49:18;;;;;;;6.07;1.33;;;9.80;99.90;;;;;;4974840;28;20025;-23
2023/12/09 06:51:44;;;;;;;4.97;1.40;;;9.80;99.90;;;;;;4999966;28;20454;-23
2023/12/09 06:54:11;;;;;;;6.57;1.50;;;9.80;99.90;;;;;;4994814;28;20079;-23
2023/12/09 06:56:37;;;;;;;2.40;0.90;;;9.80;99.90;;;;;;4982421;28;20706;-23
2023/12/09 06:59:04;;;;;;;5.40;1.80;;;9.80;99.90;;;;;;4963133;28;20640;-23
2023/12/09 07:01:29;;;;;;;7.65;1.42;;;9.90;99.90;;;;;;4996617;28;20029;-23
2023/12/09 07:03:55;;;;;;;4.27;1.40;;;9.90;99.90;;;;;;4982603;28;21036;-23
2023/12/09 07:06:23;;;;;;;6.25;1.83;;;9.90;99.90;;;;;;5009079;28;20025;-23
2023/12/09 07:08:49;;;;;;;5.32;1.30;;;9.90;99.90;;;;;;4980504;28;20669;-23
2023/12/09 07:11:16;;;;;;;7.88;1.50;;;9.90;99.90;;;;;;4986920;28;20535;-23
2023/12/09 07:13:42;;;;;;;2.87;1.10;;;10.00;99.90;;;;;;4991974;28;20018;-23
2023/12/09 07:16:09;;;;;;;5.57;1.20;;;10.00;99.90;;;;;;4982238;28;20026;-23
2023/12/09 07:18:36;;;;;;;6.22;1.73;;;10.00;99.90;;;;;;4996189;28;20073;-23
2023/12/09 07:21:02;;;;;;;6.03;1.30;;;10.00;99.90;;;;;;4969905;28;20564;-23
2023/12/09 07:23:27;;;;;;;5.47;1.60;;;10.00;99.90;;;;;;4964840;28;20033;-23
2023/12/09 07:25:55;;;;;;;5.95;1.30;;;10.00;99.90;;;;;;5009662;28;20468;-23
2023/12/09 07:28:20;;;;;;;5.67;1.20;;;10.10;99.90;;;;;;4983557;28;20038;-23
2023/12/09 07:30:46;;;;;;;3.80;1.30;;;10.00;99.90;;;;;;5001260;28;20549;-23
2023/12/09 07:33:12;;;;;;;4.87;1.30;;;10.10;99.90;;;;;;5006821;28;20034;-23
2023/12/09 07:35:39;;;;;;;4.90;1.33;;;10.10;99.90;;;;;;4988115;28;20021;-23
2023/12/09 07:38:05;;;;;;;5.85;1.52;;;10.10;99.90;;;;;;4999210;28;20096;-23
2023/12/09 07:40:31;;;;;;;5.33;1.60;;;10.10;99.90;;;;;;5003786;28;20339;-23
2023/12/09 07:42:57;;;;;;;3.03;1.10;;;10.10;99.90;;;;;;5006066;28;20547;-23
2023/12/09 07:45:22;;;;;;;7.13;1.87;;;10.10;99.90;;;;;;5000684;28;20107;-23
2023/12/09 07:47:48;;;;;;;3.35;1.30;;;10.10;99.90;;;;;;4998456;28;20391;-23
2023/12/09 07:50:14;;;;;;;3.47;1.10;;;10.20;99.90;;;;;;4949860;28;20263;-23
2023/12/09 07:52:39;;;;;;;5.65;1.42;;;10.20;99.90;;;;;;5011686;28;20049;-23
2023/12/09 07:55:07;;;;;;;5.63;1.60;;;10.20;99.90;;;;;;4970478;28;20030;-23
2023/12/09 07:57:32;;;;;;;6.77;1.90;;;10.30;99.90;;;;;;4989854;28;20038;-23
2023/12/09 07:59:58;;;;;;;3.50;1.38;;;10.30;99.90;;;;;;4999352;28;20130;-23
2023/12/09 08:02:24;;;;;;;6.23;1.30;;;10.30;99.90;;;;;;4998609;28;20136;-23
2023/12/09 08:04:49;;;;;;;8.23;2.03;;;10.40;99.90;;;;;;5005820;28;20108;-23
2023/12/09 08:07:15;;;;;;;6.93;1.80;;;9.80;99.90;;;;;;4945918;28;20152;-23
2023/12/09 08:09:41;;;;;;;5.97;1.50;;;10.40;99.90;;;;;;4983215;28;20479;-23
2023/12/09 08:12:07;;;;;;;5.80;1.63;;;10.40;99.90;;;;;;5005905;28;20236;-23
2023/12/09 08:14:33;;;;;;;6.10;1.42;;;10.50;99.90;;;;;;4989626;28;20584;-23
2023/12/09 08:16:59;;;;;;;6.82;1.60;;;10.50;99.90;;;;;;4988228;28;20317;-23
2023/12/09 08:19:25;;;;;;;5.32;1.35;;;10.50;99.90;;;;;;5000693;28;20604;-23
2023/12/09 08:21:50;;;;;;;5.10;1.60;;;10.50;99.90;;;;;;4984576;28;20034;-23
2023/12/09 08:24:16;;;;;;;4.88;1.45;;;10.50;99.90;;;;;;4997549;28;20028;-23
2023/12/09 08:26:42;;;;;;;2.53;1.10;;;10.50;99.90;;;;;;5009515;28;20025;-23
2023/12/09 08:29:11;;;;;;;4.88;1.70;;;10.60;99.90;;;;;;4997400;28;20059;-23
2023/12/09 08:31:37;;;;;;;2.80;1.27;;;10.60;99.90;;;;;;5003052;28;20057;-23
2023/12/09 08:34:04;;;;;;;2.85;1.20;;;10.60;99.90;;;;;;4987807;28;20022;-23
2023/12/09 08:36:30;;;;;;;6.63;1.40;;;10.60;99.90;;;;;;4966771;28;20431;-23
2023/12/09 08:38:56;;;;;;;5.90;1.50;;;10.70;99.90;;;;;;5008072;28;20040;-23
2023/12/09 08:41:22;;;;;;;3.42;1.15;;;10.60;99.90;;;;;;4998925;28;20025;-23
2023/12/09 08:43:53;;;;;;;4.57;1.40;;;10.70;99.90;;;;;;5010471;28;20109;-23
2023/12/09 08:46:19;;;;;;;4.30;1.25;;;10.70;99.90;;;;;;4985791;28;20391;-23
2023/12/09 08:48:45;;;;;;;4.60;1.20;;;10.70;99.90;;;;;;4999791;28;20037;-23
2023/12/09 08:51:11;;;;;;;5.25;1.48;;;10.70;99.90;;;;;;5012662;28;20573;-23
2023/12/09 08:53:37;;;;;;;2.53;1.30;;;10.70;99.90;;;;;;4971797;28;20276;-23
2023/12/09 08:56:06;;;;;;;3.65;1.17;;;10.70;99.90;;;;;;4966574;28;20727;-23
2023/12/09 08:58:31;;;;;;;3.42;1.02;;;10.70;99.90;;;;;;5009790;28;20583;-22
2023/12/09 09:00:57;;;;;;;2.80;1.40;;;10.60;99.90;;;;;;5010204;28;20044;-20
2023/12/09 09:03:23;;;;;;;4.13;1.10;;;10.60;99.90;;;;;;4995799;28;20060;-21
2023/12/09 09:05:48;;;;;;;3.03;1.15;;;10.60;99.90;;;;;;5002440;28;20240;-20
2023/12/09 09:08:14;;;;;;;3.38;1.10;;;10.60;99.90;;;;;;4953503;28;20144;-20
2023/12/09 09:10:40;;;;;;;3.90;1.10;;;10.60;99.90;;;;;;4996427;28;20114;-20
2023/12/09 09:13:05;;;;;;;4.45;1.10;;;10.60;99.90;;;;;;5011205;28;20601;-20
2023/12/09 09:15:32;;;;;;;3.80;1.10;;;10.60;99.90;;;;;;4990609;28;20576;-21
2023/12/09 09:17:57;;;;;;;4.82;1.17;;;10.60;99.90;;;;;;5002667;28;20087;-20
2023/12/09 09:20:24;;;;;;;4.10;1.07;;;10.70;99.90;;;;;;4999196;28;20124;-21
2023/12/09 09:22:50;;;;;;;4.00;1.02;;;10.60;99.90;;;;;;4979892;28;20303;-20
2023/12/09 09:25:16;;;;;;;3.50;1.17;;;10.70;99.90;;;;;;4988370;28;20494;-21
2023/12/09 09:27:41;;;;;;;2.40;0.90;;;10.70;99.90;;;;;;4979564;28;20353;-20
2023/12/09 09:30:07;;;;;;;4.15;1.30;;;10.80;99.90;;;;;;5011131;28;20021;-23
2023/12/09 09:32:33;;;;;;;2.80;1.00;;;10.80;99.90;;;;;;5000084;28;20028;-23
2023/12/09 09:34:59;;;;;;;6.37;1.30;;;10.80;99.90;;;;;;5001310;28;20037;-23
2023/12/09 09:37:25;;;;;;;3.90;1.27;;;10.80;99.90;;;;;;5007165;28;20040;-23
2023/12/09 09:39:50;;;;;;;2.53;0.90;;;10.90;99.90;;;;;;4986870;28;20040;-23
2023/12/09 09:42:31;;;;;;;5.47;1.27;;;10.90;99.90;;;;;;5001798;28;20391;-23
2023/12/09 09:45:10;;;;;;;3.00;1.30;;;11.00;99.90;;;;;;4992387;28;20057;-23
2023/12/09 09:47:36;;;;;;;2.10;0.90;;;11.00;99.90;;;;;;4996991;28;20115;-22
2023/12/09 09:50:06;;;;;;;1.93;0.87;;;11.00;99.90;;;;;;5002258;28;20033;-23
2023/12/09 09:52:35;;;;;;;4.15;1.00;;;11.00;99.90;;;;;;4988244;28;20570;-23
2023/12/09 09:55:03;;;;;;;1.80;1.00;;;11.10;99.90;;;;;;4986597;28;20036;-23
2023/12/09 09:57:29;;;;;;;2.65;0.90;;;11.10;99.90;;;;;;4996340;28;20404;-22
2023/12/09 09:59:57;;;;;;;3.20;1.10;;;11.10;99.90;;;;;;5010462;28;20041;-22
2023/12/09 10:02:26;;;;;;;2.10;0.80;;;11.10;99.90;;;;;;5008929;28;20402;-21
2023/12/09 10:04:52;;;;;;;2.55;0.93;;;11.10;99.90;;;;;;4989043;28;20034;-22
2023/12/09 10:07:19;;;;;;;4.22;1.00;;;11.10;99.90;;;;;;4974744;28;20049;-21
2023/12/09 10:09:44;;;;;;;2.05;0.90;;;11.00;99.90;;;;;;4955426;28;20124;-17
2023/12/09 10:12:10;;;;;;;1.93;0.80;;;11.00;99.90;;;;;;4997702;28;20044;-17
2023/12/09 10:14:36;;;;;;;2.38;0.80;;;11.80;99.90;;;;;;4977711;28;20232;-17
2023/12/09 10:17:02;;;;;;;4.23;1.10;;;10.90;99.90;;;;;;4993475;28;20029;-18
2023/12/09 10:19:28;;;;;;;1.95;0.80;;;10.90;99.90;;;;;;4982133;28;20034;-18
2023/12/09 10:21:54;;;;;;;2.77;0.83;;;10.80;99.90;;;;;;5002811;28;20033;-16
2023/12/09 10:24:19;;;;;;;2.43;0.70;;;10.80;99.90;;;;;;5010443;28;20280;-18
2023/12/09 10:26:46;;;;;;;2.50;0.90;;;10.80;99.90;;;;;;4984429;28;20305;-16
2023/12/09 10:29:12;;;;;;;3.15;0.90;;;10.80;99.90;;;;;;5001805;28;20036;-17
2023/12/09 10:31:38;;;;;;;1.95;0.80;;;10.80;99.90;;;;;;5008582;28;20314;-16
2023/12/09 10:34:04;;;;;;;1.23;0.77;;;10.70;99.90;;;;;;5011915;28;20119;-16
2023/12/09 10:36:30;;;;;;;3.13;0.93;;;10.70;99.90;;;;;;4988202;28;20096;-18
2023/12/09 10:38:57;;;;;;;2.05;0.80;;;10.70;99.90;;;;;;5005535;28;20040;-16
2023/12/09 10:41:25;;;;;;;2.03;0.60;;;10.70;99.90;;;;;;4996056;28;20510;-18
2023/12/09 10:43:54;;;;;;;1.70;0.70;;;10.70;99.90;;;;;;4972081;28;20091;-17
2023/12/09 10:46:20;;;;;;;1.73;0.80;;;10.70;99.90;;;;;;4996657;28;20033;-18
2023/12/09 10:48:46;;;;;;;2.25;0.77;;;10.60;99.90;;;;;;4995280;28;20026;-16
2023/12/09 10:51:11;;;;;;;2.15;0.90;;;10.60;99.90;;;;;;5000233;28;20044;-16
2023/12/09 10:53:37;;;;;;;1.70;0.80;;;10.60;99.90;;;;;;4977689;28;20054;-16
2023/12/09 10:56:03;;;;;;;2.10;0.70;;;10.60;99.90;;;;;;5011477;28;20116;-16
2023/12/09 10:58:31;;;;;;;1.48;0.70;;;10.60;99.90;;;;;;4977824;28;20044;-18
2023/12/09 11:00:57;;;;;;;1.60;0.70;;;10.60;99.90;;;;;;5011967;28;20490;-16
2023/12/09 11:03:27;;;;;;;2.15;0.70;;;10.60;99.90;;;;;;4990026;28;20826;-16
2023/12/09 11:05:57;;;;;;;2.25;0.50;;;10.60;99.90;;;;;;4988851;28;20056;-18
2023/12/09 11:08:28;;;;;;;3.10;1.00;;;10.70;99.90;;;;;;4974384;28;20256;-16
2023/12/09 11:10:55;;;;;;;2.65;0.70;;;10.60;99.90;;;;;;4966681;28;20056;-18
2023/12/09 11:13:24;;;;;;;1.97;0.70;;;10.60;99.90;;;;;;4946308;28;20435;-17
2023/12/09 11:16:18;;;;;;;1.52;0.68;;;10.60;99.90;;;;;;4990383;28;20034;-18
2023/12/09 11:18:52;;;;;;;1.55;0.68;;;10.60;99.90;;;;;;5006822;28;20037;-18
2023/12/09 11:21:28;;;;;;;1.15;0.40;;;10.60;99.90;;;;;;4967259;28;20841;-20
2023/12/09 11:23:56;;;;;;;0.50;0.40;;;10.50;99.90;;;;;;4960386;28;20226;-20
2023/12/09 11:26:31;;;;;;;1.27;0.53;;;10.50;99.90;;;;;;4983650;28;20037;-19
2023/12/09 11:29:05;;;;;;;2.25;0.57;;;10.60;99.90;;;;;;4982062;28;20031;-20
2023/12/09 11:31:53;;;;;;;1.50;0.60;;;10.50;99.90;;;;;;4969791;28;20498;-19
2023/12/09 11:34:23;;;;;;;0.65;0.60;;;10.50;99.90;;;;;;5000292;28;20641;-20
2023/12/09 11:36:52;;;;;;;1.35;0.40;;;10.50;99.90;;;;;;4965245;28;20049;-19
2023/12/09 11:39:19;;;;;;;1.63;0.40;;;10.50;99.90;;;;;;4974011;28;20036;-19
2023/12/09 11:41:47;;;;;;;0.80;0.40;;;10.50;99.90;;;;;;5007101;28;20060;-20
2023/12/09 11:44:13;;;;;;;0.85;0.57;;;10.50;99.90;;;;;;4958479;28;20030;-19
2023/12/09 11:46:40;;;;;;;1.70;0.60;;;10.50;99.90;;;;;;4971105;28;20044;-20
2023/12/09 11:49:07;;;;;;;1.58;0.60;;;10.50;99.90;;;;;;5001368;28;20439;-17
2023/12/09 11:51:34;;;;;;;0.77;0.50;;;10.40;99.90;;;;;;5006232;28;20025;-16
2023/12/09 11:54:02;;;;;;;1.63;0.50;;;10.40;99.90;;;;;;4997424;28;20072;-17
2023/12/09 11:56:28;;;;;;;0.50;0.50;;;10.40;99.90;;;;;;5001690;28;20914;-16
2023/12/09 11:58:54;;;;;;;1.15;0.60;;;10.40;99.90;;;;;;4967402;28;20061;-18
2023/12/09 12:01:21;;;;;;;1.13;0.52;;;10.50;99.90;;;;;;4976973;28;20033;-16
2023/12/09 12:03:48;;;;;;;1.03;0.50;;;10.40;99.90;;;;;;5012961;28;20025;-18
2023/12/09 12:06:16;;;;;;;0.95;0.50;;;10.40;99.90;;;;;;5003625;28;20060;-16
2023/12/09 12:08:43;;;;;;;0.50;0.50;;;10.40;99.90;;;;;;5004893;28;20026;-17
2023/12/09 12:11:09;;;;;;;0.93;0.40;;;10.40;99.90;;;;;;5002642;28;20026;-16
2023/12/09 12:13:35;;;;;;;0.98;0.40;;;10.30;99.90;;;;;;4994333;28;20113;-17
2023/12/09 12:16:01;;;;;;;1.17;0.50;;;10.30;99.90;;;;;;4956558;28;20130;-16
2023/12/09 12:18:28;;;;;;;0.88;0.50;;;10.30;99.90;;;;;;5000650;28;20526;-16
2023/12/09 12:20:55;;;;;;;0.88;0.60;;;10.30;99.90;;;;;;4999233;28;20529;-18
2023/12/09 12:23:20;;;;;;;2.20;0.60;;;10.30;99.90;;;;;;4963609;28;20612;-16
2023/12/09 12:25:51;;;;;;;1.30;0.50;;;10.30;99.90;;;;;;5011991;28;20109;-18
2023/12/09 12:28:17;;;;;;;0.90;0.40;;;10.30;99.90;;;;;;4965323;28;20588;-17
2023/12/09 12:30:43;;;;;;;0.50;0.50;;;10.30;99.90;;;;;;5005495;28;20032;-18
2023/12/09 12:33:09;;;;;;;1.17;0.60;;;10.30;99.90;;;;;;4982120;28;20033;-16
2023/12/09 12:35:35;;;;;;;1.30;0.40;;;10.30;99.90;;;;;;4991550;28;20293;-18
2023/12/09 12:38:01;;;;;;;1.48;0.50;;;10.30;99.90;;;;;;5002504;28;20048;-17
2023/12/09 12:40:28;;;;;;;1.13;0.50;;;10.30;99.90;;;;;;4999599;28;20029;-18
2023/12/09 12:43:01;;;;;;;1.70;0.60;;;10.30;99.90;;;;;;4978576;28;20479;-17
2023/12/09 12:45:27;;;;;;;0.60;0.50;;;10.30;99.90;;;;;;5000569;28;20053;-17
2023/12/09 12:47:53;;;;;;;1.35;0.70;;;10.40;99.90;;;;;;4987290;28;20104;-18
2023/12/09 12:50:18;;;;;;;1.07;0.57;;;10.30;99.90;;;;;;5008252;28;20124;-16